createdAt,value
2023-01-28T00:01:30.806Z,9.70
2023-01-28T00:06:35.944Z,9.70
2023-01-28T00:11:39.774Z,10.70
2023-01-28T00:16:43.479Z,10.23
2023-01-28T00:21:48.594Z,9.70
2023-01-28T00:26:52.577Z,9.43
2023-01-28T00:31:58.942Z,9.02
2023-01-28T00:37:07.294Z,8.87
2023-01-28T00:42:11.073Z,9.40
2023-01-28T00:47:14.879Z,9.65
2023-01-28T00:52:19.987Z,9.00
2023-01-28T00:57:23.915Z,9.70
2023-01-28T01:02:27.922Z,8.85
2023-01-28T01:07:42.032Z,10.02
2023-01-28T01:12:48.206Z,9.60
2023-01-28T01:17:52.037Z,10.02
2023-01-28T01:22:57.670Z,9.65
2023-01-28T01:28:03.385Z,10.27
2023-01-28T01:33:07.289Z,10.18
2023-01-28T01:38:12.416Z,9.40
2023-01-28T01:43:18.640Z,9.73
2023-01-28T01:48:26.496Z,9.57
2023-01-28T01:53:33.581Z,10.25
2023-01-28T01:58:42.476Z,11.20
2023-01-28T02:03:54.367Z,10.45
2023-01-28T02:09:00.300Z,9.23
2023-01-28T02:14:07.621Z,10.48
2023-01-28T02:19:13.417Z,10.97
2023-01-28T02:24:52.909Z,9.00
2023-01-28T02:30:04.106Z,9.60
2023-01-28T02:35:15.309Z,9.55
2023-01-28T02:40:23.932Z,9.73
2023-01-28T02:45:47.886Z,9.65
2023-01-28T02:51:02.899Z,9.73
2023-01-28T02:56:18.968Z,9.80
2023-01-28T03:01:30.639Z,9.88
2023-01-28T03:06:39.222Z,9.40
2023-01-28T03:12:03.272Z,9.65
2023-01-28T03:17:32.387Z,9.73
2023-01-28T03:22:58.236Z,10.57
2023-01-28T03:28:23.876Z,10.05
2023-01-28T03:33:48.693Z,11.77
2023-01-28T03:38:52.967Z,9.63
2023-01-28T03:43:57.053Z,9.75
2023-01-28T03:49:02.340Z,9.77
2023-01-28T03:54:06.497Z,9.38
2023-01-28T03:59:10.501Z,9.95
2023-01-28T04:04:22.938Z,10.93
2023-01-28T04:09:27.163Z,10.02
2023-01-28T04:14:31.831Z,10.23
2023-01-28T04:19:41.810Z,10.23
2023-01-28T04:24:45.780Z,10.60
2023-01-28T04:29:49.610Z,10.32
2023-01-28T04:34:56.510Z,10.45
2023-01-28T04:40:00.607Z,10.35
2023-01-28T04:45:05.723Z,10.32
2023-01-28T04:50:11.696Z,10.27
2023-01-28T04:55:15.861Z,10.57
2023-01-28T05:00:20.620Z,10.38
2023-01-28T05:05:25.851Z,10.68
2023-01-28T05:10:30.358Z,10.13
2023-01-28T05:15:34.623Z,10.10
2023-01-28T05:20:39.836Z,10.95
2023-01-28T05:25:43.860Z,11.00
2023-01-28T05:30:49.787Z,11.02
2023-01-28T05:35:56.217Z,10.50
2023-01-28T05:41:00.184Z,10.70
2023-01-28T05:46:04.923Z,10.38
2023-01-28T05:51:10.342Z,10.77
2023-01-28T05:56:14.359Z,10.50
2023-01-28T06:01:18.577Z,10.32
2023-01-28T06:06:25.405Z,10.70
2023-01-28T06:11:29.475Z,11.52
2023-01-28T06:16:34.219Z,10.48
2023-01-28T06:21:43.253Z,10.23
2023-01-28T06:31:52.145Z,11.45
2023-01-28T06:36:57.268Z,11.27
2023-01-28T06:42:01.105Z,11.38
2023-01-28T06:47:04.993Z,10.75
2023-01-28T06:52:10.160Z,10.93
2023-01-28T06:57:14.120Z,12.20
2023-01-28T07:02:17.939Z,11.73
2023-01-28T07:07:23.060Z,11.25
2023-01-28T07:12:26.920Z,10.85
2023-01-28T07:17:30.756Z,11.98
2023-01-28T07:22:36.019Z,10.73
2023-01-28T07:27:39.779Z,11.45
2023-01-28T07:32:43.674Z,12.52
2023-01-28T07:37:54.257Z,12.13
2023-01-28T07:42:58.257Z,11.93
2023-01-28T07:48:05.613Z,11.98
2023-01-28T07:53:12.883Z,12.82
2023-01-28T07:58:16.708Z,12.73
2023-01-28T08:03:22.622Z,12.13
2023-01-28T08:08:28.420Z,12.40
2023-01-28T08:13:32.163Z,11.43
2023-01-28T08:18:35.991Z,12.00
2023-01-28T08:23:41.067Z,12.07
2023-01-28T08:28:44.818Z,11.77
2023-01-28T08:33:48.584Z,11.90
2023-01-28T08:38:55.159Z,12.35
2023-01-28T08:43:58.973Z,11.38
2023-01-28T08:49:02.890Z,13.23
2023-01-28T08:54:10.261Z,13.05
2023-01-28T08:59:14.029Z,13.32
2023-01-28T09:04:19.828Z,12.48
2023-01-28T09:09:24.886Z,11.23
2023-01-28T09:14:28.668Z,12.07
2023-01-28T09:19:32.455Z,12.70
2023-01-28T09:24:38.988Z,13.02
2023-01-28T09:29:42.963Z,11.68
2023-01-28T09:34:46.829Z,11.35
2023-01-28T09:39:51.932Z,12.05
2023-01-28T09:45:04.122Z,12.23
2023-01-28T09:50:15.898Z,12.37
2023-01-28T09:55:30.467Z,12.18
2023-01-28T10:00:43.496Z,11.20
2023-01-28T10:05:59.291Z,11.00
2023-01-28T10:11:13.719Z,10.73
2023-01-28T10:16:25.706Z,10.45
2023-01-28T10:21:34.470Z,10.60
2023-01-28T10:26:42.746Z,10.30
2023-01-28T10:31:53.725Z,11.23
2023-01-28T10:36:58.761Z,11.68
2023-01-28T10:42:03.926Z,11.82
2023-01-28T10:47:13.775Z,10.90
2023-01-28T10:52:20.185Z,11.25
2023-01-28T10:57:25.423Z,12.43
2023-01-28T11:02:37.023Z,11.70
2023-01-28T11:07:40.878Z,12.15
2023-01-28T11:12:56.253Z,12.88
2023-01-28T11:18:04.000Z,11.98
2023-01-28T11:23:08.001Z,12.25
2023-01-28T11:28:20.504Z,12.63
2023-01-28T11:33:32.292Z,10.57
2023-01-28T11:38:36.445Z,9.02
2023-01-28T11:43:41.653Z,8.60
2023-01-28T11:48:55.143Z,7.70
2023-01-28T11:54:14.832Z,7.80
2023-01-28T11:59:38.093Z,8.38
2023-01-28T12:04:58.665Z,7.62
2023-01-28T12:10:10.812Z,7.55
2023-01-28T12:15:47.380Z,8.35
2023-01-28T12:20:57.288Z,9.30
2023-01-28T12:26:09.078Z,8.63
2023-01-28T12:31:36.437Z,7.85
2023-01-28T12:36:50.438Z,7.93
2023-01-28T12:42:05.397Z,7.65
2023-01-28T12:47:13.483Z,7.28
2023-01-28T12:52:21.212Z,6.47
2023-01-28T12:57:29.009Z,6.55
2023-01-28T13:02:40.450Z,5.32
2023-01-28T13:07:49.266Z,5.97
2023-01-28T13:12:54.650Z,5.20
2023-01-28T13:18:00.922Z,6.00
2023-01-28T13:23:07.585Z,6.65
2023-01-28T13:28:28.505Z,5.80
2023-01-28T13:33:35.682Z,5.65
2023-01-28T13:38:40.306Z,5.70
2023-01-28T13:43:44.138Z,5.75
2023-01-28T13:48:52.178Z,5.47
2023-01-28T13:54:01.734Z,5.70
2023-01-28T13:59:29.299Z,6.30
2023-01-28T14:05:00.203Z,6.65
2023-01-28T14:10:27.013Z,6.37
2023-01-28T14:16:15.039Z,6.10
2023-01-28T14:21:21.954Z,6.53
2023-01-28T14:26:33.176Z,7.07
2023-01-28T14:31:39.094Z,6.90
2023-01-28T14:36:46.633Z,6.82
2023-01-28T14:41:53.455Z,6.70
2023-01-28T14:47:18.588Z,6.12
2023-01-28T14:52:44.069Z,5.95
2023-01-28T14:57:53.140Z,6.28
2023-01-28T15:02:57.540Z,6.85
2023-01-28T15:08:02.726Z,7.10
2023-01-28T15:13:09.381Z,7.62
2023-01-28T15:18:18.520Z,7.28
2023-01-28T15:23:27.629Z,7.72
2023-01-28T15:28:34.159Z,7.05
2023-01-28T15:33:37.929Z,7.43
2023-01-28T15:38:43.074Z,8.48
2023-01-28T15:43:50.397Z,9.00
2023-01-28T15:49:05.335Z,8.80
2023-01-28T15:54:12.164Z,8.18
2023-01-28T15:59:20.882Z,9.40
2023-01-28T16:04:28.882Z,9.63
2023-01-28T16:09:36.083Z,9.48
2023-01-28T16:14:45.264Z,10.23
2023-01-28T16:19:52.204Z,10.85
2023-01-28T16:24:57.404Z,9.52
2023-01-28T16:30:02.261Z,10.05
2023-01-28T16:35:15.234Z,10.15
2023-01-28T16:40:22.995Z,9.63
2023-01-28T16:45:29.104Z,11.07
2023-01-28T16:50:33.664Z,10.88
2023-01-28T16:55:38.761Z,10.15
2023-01-28T17:00:42.575Z,9.80
2023-01-28T17:05:46.455Z,10.77
2023-01-28T17:10:54.974Z,11.45
2023-01-28T17:16:02.186Z,10.55
2023-01-28T17:21:07.828Z,12.20
2023-01-28T17:26:15.427Z,11.50
2023-01-28T17:31:19.345Z,11.07
2023-01-28T17:36:24.461Z,12.27
2023-01-28T17:41:29.695Z,16.08
2023-01-28T17:46:33.448Z,12.88
2023-01-28T17:51:37.256Z,13.00
2023-01-28T17:56:42.474Z,14.23
2023-01-28T18:01:47.450Z,13.18
2023-01-28T18:06:51.698Z,15.05
2023-01-28T18:11:56.930Z,13.95
2023-01-28T18:17:01.083Z,12.10
2023-01-28T18:22:04.883Z,12.65
2023-01-28T18:27:10.032Z,13.70
2023-01-28T18:32:13.784Z,17.37
2023-01-28T18:37:17.837Z,15.52
2023-01-28T18:42:25.041Z,14.23
2023-01-28T18:47:28.937Z,14.35
2023-01-28T18:52:32.711Z,13.07
2023-01-28T18:57:37.861Z,12.65
2023-01-28T19:02:41.611Z,14.10
2023-01-28T19:07:45.360Z,14.32
2023-01-28T19:12:50.517Z,14.68
2023-01-28T19:17:54.321Z,13.18
2023-01-28T19:22:58.152Z,13.07
2023-01-28T19:28:03.248Z,13.38
2023-01-28T19:33:07.769Z,13.25
2023-01-28T19:38:11.599Z,15.13
2023-01-28T19:43:16.799Z,16.58
2023-01-28T19:48:20.530Z,14.95
2023-01-28T19:53:24.449Z,15.10
2023-01-28T19:58:29.609Z,15.35
2023-01-28T20:03:33.744Z,14.87
2023-01-28T20:08:37.477Z,16.87
2023-01-28T20:13:44.698Z,14.43
2023-01-28T20:18:53.148Z,16.13
2023-01-28T20:23:59.290Z,15.10
2023-01-28T20:29:07.115Z,14.55
2023-01-28T20:34:16.023Z,15.65
2023-01-28T20:39:20.042Z,18.62
2023-01-28T20:44:26.675Z,24.30
2023-01-28T20:49:30.535Z,19.30
2023-01-28T20:54:34.336Z,17.98
2023-01-28T20:59:39.500Z,14.87
2023-01-28T21:04:43.258Z,14.75
2023-01-28T21:09:46.944Z,16.20
2023-01-28T21:14:54.261Z,15.07
2023-01-28T21:19:58.316Z,15.20
2023-01-28T21:25:05.311Z,15.70
2023-01-28T21:30:12.414Z,14.37
2023-01-28T21:35:16.379Z,15.60
2023-01-28T21:40:20.271Z,15.95
2023-01-28T21:45:25.596Z,16.12
2023-01-28T21:50:29.387Z,19.10
2023-01-28T21:55:34.441Z,17.98
2023-01-28T22:00:39.500Z,18.87
2023-01-28T22:05:43.892Z,18.05
2023-01-28T22:10:47.604Z,19.12
2023-01-28T22:15:52.792Z,18.20
2023-01-28T22:20:59.840Z,17.00
2023-01-28T22:26:03.729Z,18.30
2023-01-28T22:31:11.034Z,17.87
2023-01-28T22:36:16.550Z,16.20
2023-01-28T22:41:23.165Z,19.90
2023-01-28T22:46:29.251Z,21.15
2023-01-28T22:51:35.096Z,22.95
2023-01-28T22:56:40.172Z,21.33
2023-01-28T23:01:45.301Z,22.85
2023-01-28T23:06:49.104Z,26.30
2023-01-28T23:11:52.899Z,25.52
2023-01-28T23:17:15.653Z,25.00
2023-01-28T23:22:40.715Z,24.92
2023-01-28T23:27:44.966Z,24.17
2023-01-28T23:32:50.844Z,26.87
2023-01-28T23:37:55.665Z,25.92
2023-01-28T23:43:01.580Z,26.62
2023-01-28T23:48:06.730Z,26.10
2023-01-28T23:53:13.210Z,23.27
2023-01-28T23:58:26.572Z,22.23
